createdAt,value
2023-03-18T00:00:16.988Z,101707.16
2023-03-18T00:01:20.149Z,101712.59
2023-03-18T00:02:25.915Z,101710.16
2023-03-18T00:03:35.234Z,101704.97
2023-03-18T00:04:38.219Z,101712.59
2023-03-18T00:05:43.806Z,101716.94
2023-03-18T00:06:49.380Z,101716.94
2023-03-18T00:07:54.239Z,101712.03
2023-03-18T00:08:58.376Z,101715.84
2023-03-18T00:10:10.495Z,101718.56
2023-03-18T00:11:16.177Z,101712.03
2023-03-18T00:12:19.374Z,101717.75
2023-03-18T00:13:23.340Z,101719.63
2023-03-18T00:14:31.877Z,101715.28
2023-03-18T00:15:35.632Z,101712.56
2023-03-18T00:16:43.365Z,101718.00
2023-03-18T00:17:56.428Z,101718.56
2023-03-18T00:18:59.296Z,101714.19
2023-03-18T00:20:07.198Z,101721.81
2023-03-18T00:21:13.909Z,101722.34
2023-03-18T00:22:27.235Z,101718.00
2023-03-18T00:23:32.339Z,101718.00
2023-03-18T00:24:36.180Z,101718.00
2023-03-18T00:25:42.977Z,101723.44
2023-03-18T00:26:47.412Z,101722.34
2023-03-18T00:27:54.131Z,101720.19
2023-03-18T00:29:00.275Z,101721.78
2023-03-18T00:30:06.269Z,101724.50
2023-03-18T00:31:13.335Z,101724.53
2023-03-18T00:32:20.810Z,101723.97
2023-03-18T00:33:24.852Z,101727.22
2023-03-18T00:34:30.276Z,101719.63
2023-03-18T00:35:41.585Z,101723.41
2023-03-18T00:36:58.646Z,101721.81
2023-03-18T00:38:05.376Z,101723.97
2023-03-18T00:39:11.769Z,101728.03
2023-03-18T00:42:21.250Z,101734.25
2023-03-18T00:43:53.431Z,101722.84
2023-03-18T00:45:30.517Z,101729.91
2023-03-18T00:47:07.950Z,101733.44
2023-03-18T00:48:16.519Z,101740.78
2023-03-18T00:49:53.618Z,101733.72
2023-03-18T00:50:58.972Z,101735.91
2023-03-18T00:52:32.436Z,101735.63
2023-03-18T00:53:43.320Z,101733.19
2023-03-18T00:54:51.696Z,101739.69
2023-03-18T00:56:07.106Z,101744.28
2023-03-18T00:57:29.975Z,101746.75
2023-03-18T00:59:04.232Z,101748.91
2023-03-18T01:00:16.164Z,101744.56
2023-03-18T01:01:27.816Z,101739.91
2023-03-18T01:02:44.746Z,101742.41
2023-03-18T01:03:52.050Z,101748.91
2023-03-18T01:04:57.315Z,101745.09
2023-03-18T01:06:02.323Z,101742.91
2023-03-18T01:07:05.832Z,101755.94
2023-03-18T01:08:08.629Z,101751.34
2023-03-18T01:09:11.990Z,101751.34
2023-03-18T01:10:16.480Z,101743.97
2023-03-18T01:11:23.677Z,101758.66
2023-03-18T01:12:25.881Z,101751.31
2023-03-18T01:13:29.244Z,101755.69
2023-03-18T01:14:32.612Z,101749.41
2023-03-18T01:15:34.971Z,101755.66
2023-03-18T01:16:38.728Z,101749.38
2023-03-18T01:17:41.157Z,101750.47
2023-03-18T01:18:43.940Z,101756.47
2023-03-18T01:19:49.326Z,101762.97
2023-03-18T01:20:52.010Z,101757.56
2023-03-18T01:21:56.975Z,101754.25
2023-03-18T01:23:01.084Z,101760.53
2023-03-18T01:24:04.499Z,101761.31
2023-03-18T01:25:10.156Z,101761.06
2023-03-18T01:26:14.183Z,101767.31
2023-03-18T01:27:19.871Z,101764.50
2023-03-18T01:28:23.295Z,101765.09
2023-03-18T01:29:25.686Z,101772.16
2023-03-18T01:30:31.869Z,101778.66
2023-03-18T01:31:35.943Z,101771.34
2023-03-18T01:32:45.156Z,101768.59
2023-03-18T01:33:48.148Z,101769.44
2023-03-18T01:34:54.344Z,101777.81
2023-03-18T01:36:00.461Z,101773.72
2023-03-18T01:37:05.641Z,101775.91
2023-03-18T01:38:16.125Z,101772.63
2023-03-18T01:39:18.374Z,101770.44
2023-03-18T01:40:26.614Z,101771.56
2023-03-18T01:41:31.410Z,101775.84
2023-03-18T01:42:36.698Z,101783.25
2023-03-18T01:43:43.323Z,101772.63
2023-03-18T01:44:47.347Z,101776.72
2023-03-18T01:45:53.784Z,101778.03
2023-03-18T01:46:56.984Z,101786.47
2023-03-18T01:48:01.933Z,101782.69
2023-03-18T01:49:14.032Z,101786.47
2023-03-18T01:50:22.535Z,101788.38
2023-03-18T01:51:29.494Z,101782.94
2023-03-18T01:52:34.196Z,101784.28
2023-03-18T01:53:42.695Z,101787.28
2023-03-18T01:55:12.096Z,101789.44
2023-03-18T01:56:18.181Z,101796.78
2023-03-18T01:57:22.549Z,101790.19
2023-03-18T01:58:40.187Z,101792.97
2023-03-18T01:59:47.402Z,101792.13
2023-03-18T02:01:26.614Z,101792.66
2023-03-18T02:02:31.257Z,101793.16
2023-03-18T02:03:37.988Z,101791.81
2023-03-18T02:04:48.054Z,101798.59
2023-03-18T02:05:54.299Z,101792.06
2023-03-18T02:07:00.341Z,101803.72
2023-03-18T02:08:04.610Z,101800.19
2023-03-18T02:09:10.001Z,101801.56
2023-03-18T02:10:16.293Z,101796.63
2023-03-18T02:11:19.240Z,101799.38
2023-03-18T02:12:26.712Z,101804.47
2023-03-18T02:13:34.952Z,101800.63
2023-03-18T02:14:37.676Z,101811.78
2023-03-18T02:15:57.148Z,101803.88
2023-03-18T02:17:05.585Z,101814.72
2023-03-18T02:18:21.510Z,101809.56
2023-03-18T02:19:36.362Z,101812.56
2023-03-18T02:21:03.814Z,101821.50
2023-03-18T02:22:40.091Z,101821.25
2023-03-18T02:24:03.152Z,101804.97
2023-03-18T02:25:37.006Z,101819.84
2023-03-18T02:26:59.247Z,101824.16
2023-03-18T02:28:12.668Z,101825.00
2023-03-18T02:29:19.734Z,101822.84
2023-03-18T02:30:40.496Z,101826.69
2023-03-18T02:31:45.327Z,101832.34
2023-03-18T02:32:54.375Z,101829.38
2023-03-18T02:33:57.826Z,101835.31
2023-03-18T02:35:04.167Z,101832.03
2023-03-18T02:36:13.668Z,101825.84
2023-03-18T02:37:18.198Z,101826.88
2023-03-18T02:38:22.332Z,101829.31
2023-03-18T02:39:26.152Z,101831.53
2023-03-18T02:40:34.790Z,101830.44
2023-03-18T02:41:40.844Z,101830.94
2023-03-18T02:42:44.457Z,101827.66
2023-03-18T02:43:49.195Z,101841.22
2023-03-18T02:44:52.381Z,101836.34
2023-03-18T02:46:52.724Z,101838.50
2023-03-18T02:47:56.412Z,101832.00
2023-03-18T02:49:01.975Z,101843.69
2023-03-18T02:50:12.226Z,101847.19
2023-03-18T02:51:18.860Z,101842.34
2023-03-18T02:52:23.525Z,101847.19
2023-03-18T02:53:30.451Z,101851.28
2023-03-18T02:54:33.259Z,101844.53
2023-03-18T02:55:38.655Z,101855.91
2023-03-18T02:56:43.663Z,101857.03
2023-03-18T02:57:47.295Z,101849.66
2023-03-18T02:58:51.642Z,101861.88
2023-03-18T02:59:54.745Z,101861.84
2023-03-18T03:00:57.785Z,101865.63
2023-03-18T03:02:02.248Z,101859.38
2023-03-18T03:03:06.402Z,101859.13
2023-03-18T03:04:11.244Z,101864.00
2023-03-18T03:05:13.919Z,101863.47
2023-03-18T03:06:17.122Z,101861.84
2023-03-18T03:07:20.750Z,101871.13
2023-03-18T03:08:29.656Z,101864.81
2023-03-18T03:09:31.874Z,101859.97
2023-03-18T03:10:35.577Z,101865.13
2023-03-18T03:11:38.112Z,101866.75
2023-03-18T03:12:47.879Z,101863.78
2023-03-18T03:13:53.708Z,101864.53
2023-03-18T03:14:56.827Z,101867.84
2023-03-18T03:16:03.190Z,101865.13
2023-03-18T03:17:07.209Z,101869.97
2023-03-18T03:18:12.237Z,101868.41
2023-03-18T03:19:14.856Z,101865.38
2023-03-18T03:20:18.363Z,101868.94
2023-03-18T03:21:21.727Z,101858.63
2023-03-18T03:22:24.109Z,101858.06
2023-03-18T03:23:28.648Z,101860.25
2023-03-18T03:24:35.432Z,101860.19
2023-03-18T03:25:39.093Z,101855.31
2023-03-18T03:26:42.266Z,101865.91
2023-03-18T03:27:44.821Z,101870.28
2023-03-18T03:28:48.131Z,101868.09
2023-03-18T03:29:50.685Z,101864.28
2023-03-18T03:30:56.220Z,101867.84
2023-03-18T03:31:58.562Z,101869.97
2023-03-18T03:33:01.746Z,101865.63
2023-03-18T03:34:05.571Z,101871.88
2023-03-18T03:35:15.863Z,101862.28
2023-03-18T03:36:19.118Z,101877.00
2023-03-18T03:37:22.095Z,101865.00
2023-03-18T03:38:24.539Z,101865.31
2023-03-18T03:39:33.205Z,101865.63
2023-03-18T03:40:35.722Z,101867.25
2023-03-18T03:41:40.494Z,101871.03
2023-03-18T03:42:45.258Z,101868.31
2023-03-18T03:43:47.730Z,101865.63
2023-03-18T03:44:50.544Z,101878.09
2023-03-18T03:45:52.879Z,101871.03
2023-03-18T03:46:56.435Z,101863.78
2023-03-18T03:48:00.326Z,101876.78
2023-03-18T03:49:02.772Z,101871.66
2023-03-18T03:50:07.357Z,101872.19
2023-03-18T03:51:09.934Z,101868.91
2023-03-18T03:52:12.456Z,101876.28
2023-03-18T03:53:17.452Z,101873.81
2023-03-18T03:54:21.217Z,101867.84
2023-03-18T03:55:24.004Z,101868.91
2023-03-18T03:56:28.440Z,101879.81
2023-03-18T03:57:33.143Z,101878.25
2023-03-18T03:58:36.364Z,101882.63
2023-03-18T03:59:40.625Z,101880.94
2023-03-18T04:00:56.090Z,101879.81
2023-03-18T04:01:58.351Z,101878.25
2023-03-18T04:03:02.417Z,101873.34
2023-03-18T04:04:09.477Z,101879.09
2023-03-18T04:05:16.108Z,101880.53
2023-03-18T04:06:20.802Z,101886.47
2023-03-18T04:07:32.729Z,101887.53
2023-03-18T04:08:35.671Z,101888.13
2023-03-18T04:09:41.380Z,101880.78
2023-03-18T04:10:43.865Z,101881.38
2023-03-18T04:11:48.817Z,101877.81
2023-03-18T04:12:53.384Z,101886.16
2023-03-18T04:13:56.225Z,101885.47
2023-03-18T04:14:59.383Z,101885.75
2023-03-18T04:16:03.206Z,101888.19
2023-03-18T04:17:11.669Z,101883.03
2023-03-18T04:18:17.390Z,101877.84
2023-03-18T04:19:23.117Z,101887.88
2023-03-18T04:20:27.788Z,101884.94
2023-03-18T04:21:30.995Z,101889.34
2023-03-18T04:22:35.773Z,101886.56
2023-03-18T04:23:41.376Z,101885.13
2023-03-18T04:24:49.068Z,101889.31
2023-03-18T04:25:54.466Z,101888.28
2023-03-18T04:26:56.943Z,101889.94
2023-03-18T04:28:00.278Z,101886.69
2023-03-18T04:29:04.953Z,101892.97
2023-03-18T04:30:10.106Z,101895.94
2023-03-18T04:31:24.128Z,101900.34
2023-03-18T04:32:26.698Z,101900.25
2023-03-18T04:33:29.938Z,101890.56
2023-03-18T04:34:33.087Z,101909.31
2023-03-18T04:35:35.859Z,101896.59
2023-03-18T04:36:39.535Z,101898.78
2023-03-18T04:37:46.775Z,101895.56
2023-03-18T04:38:52.446Z,101897.50
2023-03-18T04:40:00.660Z,101899.41
2023-03-18T04:41:03.031Z,101899.97
2023-03-18T04:42:05.867Z,101904.25
2023-03-18T04:43:10.300Z,101909.09
2023-03-18T04:44:14.984Z,101909.66
2023-03-18T04:45:27.592Z,101912.47
2023-03-18T04:46:40.236Z,101913.22
2023-03-18T04:47:51.254Z,101913.53
2023-03-18T04:48:55.407Z,101921.13
2023-03-18T04:50:08.800Z,101917.34
2023-03-18T04:51:23.581Z,101926.44
2023-03-18T04:52:30.401Z,101923.03
2023-03-18T04:53:46.763Z,101927.91
2023-03-18T04:54:53.140Z,101924.81
2023-03-18T04:56:27.588Z,101929.69
2023-03-18T04:57:32.408Z,101922.06
2023-03-18T04:58:45.411Z,101934.25
2023-03-18T05:00:03.681Z,101921.72
2023-03-18T05:01:07.545Z,101933.56
2023-03-18T05:02:17.001Z,101935.56
2023-03-18T05:03:25.677Z,101941.34
2023-03-18T05:04:55.506Z,101929.56
2023-03-18T05:05:59.919Z,101938.81
2023-03-18T05:07:17.305Z,101933.88
2023-03-18T05:08:30.355Z,101953.13
2023-03-18T05:10:00.439Z,101948.34
2023-03-18T05:11:05.948Z,101942.31
2023-03-18T05:12:15.307Z,101943.94
2023-03-18T05:13:29.414Z,101954.28
2023-03-18T05:14:38.834Z,101947.84
2023-03-18T05:17:06.363Z,101944.97
2023-03-18T05:18:24.142Z,101953.56
2023-03-18T05:19:37.991Z,101958.88
2023-03-18T05:20:52.024Z,101958.16
2023-03-18T05:22:05.181Z,101951.41
2023-03-18T05:23:22.692Z,101951.59
2023-03-18T05:24:35.563Z,101949.19
2023-03-18T05:25:51.119Z,101959.50
2023-03-18T05:27:07.433Z,101967.72
2023-03-18T05:30:09.273Z,101970.44
2023-03-18T05:33:28.066Z,101962.63
2023-03-18T05:34:54.723Z,101965.22
2023-03-18T05:36:21.974Z,101957.88
2023-03-18T05:38:28.893Z,101957.78
2023-03-18T05:41:23.242Z,101955.25
2023-03-18T05:44:45.635Z,101951.81
2023-03-18T05:46:02.888Z,101947.84
2023-03-18T05:47:57.914Z,101955.63
2023-03-18T05:49:09.076Z,101943.88
2023-03-18T05:52:18.326Z,101950.97
2023-03-18T05:53:35.226Z,101953.81
2023-03-18T05:55:01.464Z,101942.47
2023-03-18T05:56:15.133Z,101943.41
2023-03-18T05:57:30.951Z,101944.03
2023-03-18T05:58:40.578Z,101942.00
2023-03-18T06:00:07.873Z,101956.03
2023-03-18T06:01:24.081Z,101948.00
2023-03-18T06:02:29.704Z,101960.00
2023-03-18T06:03:33.810Z,101949.31
2023-03-18T06:04:47.289Z,101952.13
2023-03-18T06:05:51.712Z,101953.88
2023-03-18T06:06:58.109Z,101960.88
2023-03-18T06:08:10.288Z,101956.38
2023-03-18T06:09:16.527Z,101947.78
2023-03-18T06:12:40.475Z,101952.84
2023-03-18T06:13:44.119Z,101955.59
2023-03-18T06:14:50.335Z,101951.78
2023-03-18T06:16:03.806Z,101952.38
2023-03-18T06:17:41.082Z,101949.88
2023-03-18T06:20:19.645Z,101950.13
2023-03-18T06:21:24.919Z,101957.75
2023-03-18T06:22:37.935Z,101955.88
2023-03-18T06:23:50.388Z,101958.88
2023-03-18T06:25:01.228Z,101951.41
2023-03-18T06:26:09.851Z,101953.59
2023-03-18T06:27:20.064Z,101959.97
2023-03-18T06:28:29.945Z,101961.03
2023-03-18T06:29:37.391Z,101958.22
2023-03-18T06:30:52.297Z,101968.38
2023-03-18T06:32:01.912Z,101965.31
2023-03-18T06:33:08.819Z,101965.41
2023-03-18T06:34:21.026Z,101968.31
2023-03-18T06:35:30.667Z,101969.28
2023-03-18T06:36:36.065Z,101967.56
2023-03-18T06:37:44.192Z,101978.03
2023-03-18T06:38:47.622Z,101966.97
2023-03-18T06:40:28.706Z,101976.72
2023-03-18T06:41:39.889Z,101977.84
2023-03-18T06:49:20.672Z,101991.19
2023-03-18T06:50:35.713Z,101991.59
2023-03-18T06:52:20.224Z,101990.44
2023-03-18T06:53:41.278Z,101993.16
2023-03-18T06:59:13.893Z,101995.00
2023-03-18T07:00:25.135Z,101989.63
2023-03-18T07:01:38.178Z,101992.31
2023-03-18T07:03:20.188Z,101996.72
2023-03-18T07:04:30.651Z,101990.75
2023-03-18T07:06:05.591Z,101997.09
2023-03-18T07:07:14.555Z,102002.00
2023-03-18T07:08:18.666Z,102000.13
2023-03-18T07:09:23.990Z,102007.88
2023-03-18T07:10:32.479Z,101997.38
2023-03-18T07:11:48.729Z,101998.00
2023-03-18T07:13:03.143Z,101992.97
2023-03-18T07:14:12.559Z,102002.63
2023-03-18T07:15:22.323Z,102004.66
2023-03-18T07:16:37.527Z,102003.19
2023-03-18T07:17:44.260Z,102010.31
2023-03-18T07:18:54.453Z,102002.41
2023-03-18T07:19:58.394Z,102009.47
2023-03-18T07:21:03.564Z,101991.66
2023-03-18T07:22:05.836Z,102000.56
2023-03-18T07:23:08.368Z,102001.38
2023-03-18T07:24:11.611Z,102002.25
2023-03-18T07:25:23.201Z,101995.59
2023-03-18T07:26:28.246Z,102003.38
2023-03-18T07:27:37.130Z,102001.53
2023-03-18T07:28:40.841Z,101991.81
2023-03-18T07:29:43.257Z,101994.56
2023-03-18T07:30:45.579Z,101998.94
2023-03-18T07:31:48.654Z,101999.38
2023-03-18T07:32:51.713Z,101992.44
2023-03-18T07:33:53.877Z,102009.97
2023-03-18T07:34:57.227Z,102000.94
2023-03-18T07:36:01.200Z,101990.78
2023-03-18T07:37:04.182Z,101990.88
2023-03-18T07:38:06.190Z,101993.16
2023-03-18T07:39:10.334Z,102000.44
2023-03-18T07:40:14.789Z,101993.63
2023-03-18T07:41:16.973Z,101986.00
2023-03-18T07:42:19.457Z,101982.09
2023-03-18T07:43:21.363Z,101992.28
2023-03-18T07:44:24.075Z,101986.84
2023-03-18T07:45:29.903Z,101988.56
2023-03-18T07:46:32.233Z,101991.13
2023-03-18T07:47:34.560Z,101993.22
2023-03-18T07:48:36.607Z,101993.88
2023-03-18T07:49:38.534Z,101993.69
2023-03-18T07:50:41.462Z,101997.84
2023-03-18T07:51:43.668Z,101993.69
2023-03-18T07:52:45.614Z,101988.34
2023-03-18T07:53:48.096Z,101993.03
2023-03-18T07:54:51.461Z,101995.50
2023-03-18T07:55:54.951Z,101994.06
2023-03-18T07:56:57.206Z,101997.91
2023-03-18T07:57:59.745Z,101992.34
2023-03-18T07:59:01.660Z,102001.59
2023-03-18T08:00:06.240Z,101993.22
2023-03-18T08:01:18.540Z,101998.25
2023-03-18T08:02:21.837Z,101992.81
2023-03-18T08:03:24.129Z,101995.16
2023-03-18T08:04:29.868Z,102004.09
2023-03-18T08:05:32.463Z,102000.00
2023-03-18T08:06:34.991Z,101993.22
2023-03-18T08:07:38.076Z,101984.66
2023-03-18T08:08:42.008Z,101986.56
2023-03-18T08:09:44.095Z,101987.88
2023-03-18T08:10:48.845Z,101981.25
2023-03-18T08:11:53.097Z,101987.84
2023-03-18T08:12:54.985Z,101988.16
2023-03-18T08:13:56.991Z,101992.44
2023-03-18T08:15:00.007Z,101987.53
2023-03-18T08:16:02.481Z,101985.16
2023-03-18T08:17:04.495Z,101978.63
2023-03-18T08:18:09.083Z,101989.78
2023-03-18T08:19:12.132Z,101983.34
2023-03-18T08:20:15.397Z,101995.53
2023-03-18T08:21:20.063Z,101998.28
2023-03-18T08:22:24.226Z,101993.63
2023-03-18T08:23:26.169Z,101979.53
2023-03-18T08:24:28.855Z,101987.41
2023-03-18T08:25:32.994Z,101987.06
2023-03-18T08:26:43.765Z,101990.03
2023-03-18T08:27:45.869Z,101986.44
2023-03-18T08:29:20.848Z,101994.25
2023-03-18T08:30:40.791Z,101987.78
2023-03-18T08:31:44.513Z,101988.81
2023-03-18T08:32:49.575Z,101980.91
2023-03-18T08:33:54.272Z,101982.31
2023-03-18T08:34:57.121Z,101988.75
2023-03-18T08:36:12.546Z,101985.53
2023-03-18T08:37:19.208Z,101981.13
2023-03-18T08:38:24.318Z,101973.47
2023-03-18T08:39:37.456Z,101982.44
2023-03-18T08:40:50.137Z,101981.50
2023-03-18T08:41:58.290Z,101980.25
2023-03-18T08:43:00.660Z,101990.56
2023-03-18T08:44:07.141Z,101985.53
2023-03-18T08:45:11.203Z,101987.78
2023-03-18T08:46:21.865Z,101979.53
2023-03-18T08:47:56.706Z,101982.19
2023-03-18T08:49:04.654Z,101976.13
2023-03-18T08:50:19.082Z,101983.16
2023-03-18T08:51:33.274Z,101985.97
2023-03-18T08:52:49.815Z,101979.81
2023-03-18T08:54:04.165Z,101978.53
2023-03-18T08:55:49.363Z,101977.59
2023-03-18T08:57:01.270Z,101976.06
2023-03-18T08:58:14.275Z,101970.28
2023-03-18T08:59:21.111Z,101967.41
2023-03-18T09:00:41.454Z,101967.47
2023-03-18T09:01:50.453Z,101969.13
2023-03-18T09:03:06.852Z,101958.75
2023-03-18T09:05:49.566Z,101961.50
2023-03-18T09:08:41.052Z,101954.84
2023-03-18T09:09:51.081Z,101948.16
2023-03-18T09:11:22.623Z,101955.72
2023-03-18T09:12:48.907Z,101953.38
2023-03-18T09:13:58.043Z,101956.88
2023-03-18T09:15:04.893Z,101948.88
2023-03-18T09:16:09.874Z,101939.47
2023-03-18T09:17:13.677Z,101951.22
2023-03-18T09:18:25.537Z,101945.44
2023-03-18T09:19:36.494Z,101939.25
2023-03-18T09:20:51.120Z,101952.13
2023-03-18T09:21:59.816Z,101952.63
2023-03-18T09:23:09.832Z,101947.41
2023-03-18T09:24:14.904Z,101949.38
2023-03-18T09:25:26.138Z,101943.44
2023-03-18T09:26:33.075Z,101947.00
2023-03-18T09:27:39.512Z,101934.69
2023-03-18T09:28:43.138Z,101942.66
2023-03-18T09:29:47.302Z,101934.91
2023-03-18T09:30:57.373Z,101936.56
2023-03-18T09:32:03.558Z,101938.00
2023-03-18T09:33:22.360Z,101939.75
2023-03-18T09:34:27.284Z,101934.44
2023-03-18T09:35:40.029Z,101937.53
2023-03-18T09:37:00.349Z,101929.41
2023-03-18T09:38:16.354Z,101933.31
2023-03-18T09:39:26.511Z,101927.78
2023-03-18T09:40:33.395Z,101928.69
2023-03-18T09:42:00.750Z,101931.81
2023-03-18T09:43:34.720Z,101925.25
2023-03-18T09:44:42.685Z,101931.81
2023-03-18T09:46:11.455Z,101924.19
2023-03-18T09:47:36.175Z,101931.53
2023-03-18T09:48:51.774Z,101934.13
2023-03-18T09:50:29.273Z,101918.88
2023-03-18T09:52:31.820Z,101925.69
2023-03-18T09:53:51.271Z,101924.72
2023-03-18T09:55:05.087Z,101919.06
2023-03-18T09:56:16.202Z,101925.97
2023-03-18T09:57:48.084Z,101919.84
2023-03-18T09:59:09.393Z,101907.66
2023-03-18T10:00:40.269Z,101915.31
2023-03-18T10:01:47.886Z,101915.91
2023-03-18T10:03:00.524Z,101908.78
2023-03-18T10:04:23.546Z,101901.03
2023-03-18T10:05:35.780Z,101904.19
2023-03-18T10:06:43.159Z,101900.72
2023-03-18T10:08:02.554Z,101899.56
2023-03-18T10:09:24.438Z,101906.25
2023-03-18T10:10:39.520Z,101902.66
2023-03-18T10:11:47.224Z,101900.63
2023-03-18T10:13:07.727Z,101895.25
2023-03-18T10:14:28.179Z,101899.16
2023-03-18T10:15:48.165Z,101898.44
2023-03-18T10:17:17.355Z,101898.44
2023-03-18T10:18:32.858Z,101893.50
2023-03-18T10:19:46.168Z,101890.72
2023-03-18T10:21:05.179Z,101897.03
2023-03-18T10:22:28.642Z,101895.94
2023-03-18T10:24:00.435Z,101896.63
2023-03-18T10:25:27.254Z,101897.03
2023-03-18T10:26:41.794Z,101892.88
2023-03-18T10:27:57.469Z,101886.25
2023-03-18T10:29:11.672Z,101880.72
2023-03-18T10:30:31.704Z,101891.13
2023-03-18T10:31:56.678Z,101889.28
2023-03-18T10:33:18.040Z,101878.31
2023-03-18T10:34:23.873Z,101879.09
2023-03-18T10:35:33.372Z,101870.53
2023-03-18T10:37:06.049Z,101874.19
2023-03-18T10:38:32.012Z,101872.81
2023-03-18T10:39:38.467Z,101872.81
2023-03-18T10:40:44.324Z,101870.50
2023-03-18T10:41:51.373Z,101871.22
2023-03-18T10:42:56.650Z,101866.44
2023-03-18T10:44:04.770Z,101872.22
2023-03-18T10:45:35.075Z,101862.44
2023-03-18T10:46:38.775Z,101876.06
2023-03-18T10:47:48.098Z,101869.03
2023-03-18T10:49:11.937Z,101867.47
2023-03-18T10:50:39.064Z,101865.63
2023-03-18T10:51:56.553Z,101864.28
2023-03-18T10:53:16.176Z,101857.16
2023-03-18T10:54:28.424Z,101869.78
2023-03-18T10:55:38.337Z,101860.81
2023-03-18T10:56:43.679Z,101855.94
2023-03-18T10:57:49.807Z,101858.50
2023-03-18T10:58:54.939Z,101852.47
2023-03-18T10:59:57.981Z,101853.13
2023-03-18T11:01:01.389Z,101854.50
2023-03-18T11:02:17.540Z,101853.72
2023-03-18T11:03:44.453Z,101856.56
2023-03-18T11:04:58.579Z,101855.84
2023-03-18T11:06:04.596Z,101854.13
2023-03-18T11:07:15.102Z,101852.16
2023-03-18T11:08:36.978Z,101854.09
2023-03-18T11:09:42.664Z,101851.03
2023-03-18T11:10:49.806Z,101848.63
2023-03-18T11:12:05.518Z,101845.56
2023-03-18T11:13:07.808Z,101851.16
2023-03-18T11:14:21.149Z,101843.31
2023-03-18T11:15:25.361Z,101854.53
2023-03-18T11:16:45.905Z,101840.38
2023-03-18T11:17:50.667Z,101858.00
2023-03-18T11:18:55.557Z,101845.97
2023-03-18T11:20:08.685Z,101849.25
2023-03-18T11:21:14.720Z,101841.91
2023-03-18T11:22:24.131Z,101841.91
2023-03-18T11:23:49.395Z,101846.28
2023-03-18T11:25:14.369Z,101836.03
2023-03-18T11:26:30.125Z,101842.53
2023-03-18T11:27:41.676Z,101841.34
2023-03-18T11:28:45.840Z,101831.13
2023-03-18T11:30:01.083Z,101827.81
2023-03-18T11:31:06.742Z,101835.63
2023-03-18T11:32:25.470Z,101830.22
2023-03-18T11:33:38.563Z,101834.50
2023-03-18T11:34:42.660Z,101823.84
2023-03-18T11:35:58.468Z,101822.81
2023-03-18T11:37:06.613Z,101826.25
2023-03-18T11:38:18.006Z,101822.31
2023-03-18T11:39:22.452Z,101828.69
2023-03-18T11:40:28.306Z,101833.97
2023-03-18T11:41:30.951Z,101829.59
2023-03-18T11:42:34.643Z,101823.69
2023-03-18T11:43:39.690Z,101832.63
2023-03-18T11:44:43.103Z,101834.16
2023-03-18T11:45:56.224Z,101820.78
2023-03-18T11:47:24.747Z,101827.25
2023-03-18T11:48:38.270Z,101823.84
2023-03-18T11:49:45.972Z,101824.19
2023-03-18T11:51:19.396Z,101824.19
2023-03-18T11:52:53.144Z,101826.16
2023-03-18T11:54:20.358Z,101814.91
2023-03-18T11:55:44.189Z,101813.41
2023-03-18T11:56:58.801Z,101818.91
2023-03-18T11:58:16.684Z,101820.72
2023-03-18T11:59:28.114Z,101827.25
2023-03-18T12:00:46.238Z,101815.66
2023-03-18T12:02:08.111Z,101810.91
2023-03-18T12:03:21.767Z,101809.25
2023-03-18T12:05:02.647Z,101814.34
2023-03-18T12:06:25.099Z,101811.88
2023-03-18T12:07:44.970Z,101808.03
2023-03-18T12:08:55.277Z,101811.56
2023-03-18T12:10:20.643Z,101819.50
2023-03-18T12:11:56.136Z,101813.59
2023-03-18T12:13:51.573Z,101820.13
2023-03-18T12:15:39.890Z,101820.84
2023-03-18T12:17:21.510Z,101819.00
2023-03-18T12:21:10.727Z,101807.63
2023-03-18T12:22:50.507Z,101812.84
2023-03-18T12:24:53.601Z,101806.41
2023-03-18T12:43:53.534Z,101783.75
2023-03-18T12:45:52.804Z,101795.13
2023-03-18T12:52:39.029Z,101785.38
2023-03-18T12:53:58.707Z,101784.16
2023-03-18T12:55:41.730Z,101773.25
2023-03-18T12:57:16.020Z,101772.56
2023-03-18T12:58:58.564Z,101774.56
2023-03-18T13:02:44.177Z,101775.19
2023-03-18T13:06:54.409Z,101774.19
2023-03-18T13:33:02.055Z,101749.81
2023-03-18T13:35:22.759Z,101736.09
2023-03-18T13:37:51.583Z,101741.78
2023-03-18T13:39:24.174Z,101748.97
2023-03-18T14:05:40.013Z,101710.00
2023-03-18T14:08:04.108Z,101712.25
2023-03-18T14:11:24.365Z,101712.88
2023-03-18T14:12:31.507Z,101708.97
2023-03-18T14:13:35.078Z,101703.81
2023-03-18T14:14:54.812Z,101699.75
2023-03-18T14:15:59.720Z,101698.00
2023-03-18T14:17:04.860Z,101698.84
2023-03-18T14:18:38.596Z,101696.00
2023-03-18T14:19:46.397Z,101686.94
2023-03-18T14:20:54.071Z,101691.31
2023-03-18T14:22:35.871Z,101696.09
2023-03-18T14:23:43.169Z,101691.09
2023-03-18T14:25:08.340Z,101687.06
2023-03-18T14:26:21.616Z,101693.84
2023-03-18T14:27:27.131Z,101693.25
2023-03-18T14:28:45.508Z,101692.34
2023-03-18T14:29:53.454Z,101695.78
2023-03-18T14:31:38.538Z,101689.28
2023-03-18T14:32:43.702Z,101690.09
2023-03-18T14:34:20.135Z,101689.28
2023-03-18T14:35:29.820Z,101686.34
2023-03-18T14:36:53.526Z,101693.56
2023-03-18T14:37:56.419Z,101683.91
2023-03-18T14:39:06.021Z,101683.22
2023-03-18T14:40:17.993Z,101684.81
2023-03-18T14:41:28.781Z,101694.97
2023-03-18T14:42:57.194Z,101688.19
2023-03-18T14:44:03.052Z,101688.06
2023-03-18T14:45:28.276Z,101685.44
2023-03-18T14:46:36.692Z,101681.16
2023-03-18T14:47:54.489Z,101687.16
2023-03-18T14:48:56.717Z,101693.75
2023-03-18T14:50:05.836Z,101691.03
2023-03-18T14:51:22.924Z,101686.81
2023-03-18T14:52:39.630Z,101683.19
2023-03-18T14:54:21.394Z,101675.88
2023-03-18T14:55:43.549Z,101674.84
2023-03-18T14:56:56.468Z,101678.13
2023-03-18T14:57:58.358Z,101682.50
2023-03-18T14:59:02.813Z,101682.97
2023-03-18T15:00:24.300Z,101678.59
2023-03-18T15:01:41.206Z,101683.59
2023-03-18T15:02:45.482Z,101675.97
2023-03-18T15:03:50.763Z,101677.06
2023-03-18T15:04:56.489Z,101685.03
2023-03-18T15:06:02.523Z,101678.44
2023-03-18T15:07:09.836Z,101673.84
2023-03-18T15:08:22.747Z,101673.84
2023-03-18T15:09:33.626Z,101676.06
2023-03-18T15:10:36.391Z,101674.44
2023-03-18T15:11:47.215Z,101675.06
2023-03-18T15:13:01.414Z,101673.75
2023-03-18T15:14:03.898Z,101671.59
2023-03-18T15:15:21.697Z,101678.19
2023-03-18T15:16:32.943Z,101674.94
2023-03-18T15:17:49.632Z,101681.31
2023-03-18T15:18:56.639Z,101679.06
2023-03-18T15:20:02.125Z,101677.47
2023-03-18T15:21:05.520Z,101676.16
2023-03-18T15:22:10.929Z,101683.75
2023-03-18T15:23:20.047Z,101679.16
2023-03-18T15:24:27.299Z,101674.81
2023-03-18T15:25:32.822Z,101678.16
2023-03-18T15:26:48.824Z,101675.53
2023-03-18T15:27:50.931Z,101675.22
2023-03-18T15:28:56.544Z,101664.03
2023-03-18T15:30:01.774Z,101678.84